Time;durP1;ratioP1;P1;durP2;ratioP2;P2;SDS_P1;SDS_P2;PMS_P1;PMS_P2;Temp;Humidity;BMP_temperature;BMP_pressure;BME280_temperature;BME280_humidity;BME280_pressure;Samples;Min_cycle;Max_cycle;Signal;HPM_P1;HPM_P2
2023/12/15 00:01:44;;;;;;;8.55;6.15;;;5.80;99.90;;;;;;5030984;28;20234;-57
2023/12/15 00:04:12;;;;;;;8.23;5.97;;;5.70;99.90;;;;;;5031082;28;20740;-55
2023/12/15 00:06:40;;;;;;;9.82;6.85;;;5.70;99.90;;;;;;5031100;28;20206;-57
2023/12/15 00:09:08;;;;;;;11.90;7.00;;;5.60;99.90;;;;;;5028550;28;20654;-55
2023/12/15 00:11:36;;;;;;;11.80;6.65;;;5.50;99.90;;;;;;5030898;28;20719;-56
2023/12/15 00:14:04;;;;;;;11.25;7.47;;;5.40;99.90;;;;;;5031287;28;20203;-58
2023/12/15 00:16:33;;;;;;;8.60;6.32;;;5.40;99.90;;;;;;5022969;28;20570;-56
2023/12/15 00:19:01;;;;;;;8.40;6.63;;;5.40;99.90;;;;;;5031255;28;20285;-56
2023/12/15 00:21:29;;;;;;;12.65;7.28;;;5.40;99.90;;;;;;5030643;28;20273;-57
2023/12/15 00:23:56;;;;;;;11.55;7.30;;;5.30;99.90;;;;;;5030856;28;20641;-56
2023/12/15 00:26:24;;;;;;;10.27;7.30;;;5.30;99.90;;;;;;5030890;28;20731;-56
2023/12/15 00:28:52;;;;;;;12.00;7.53;;;5.20;99.90;;;;;;5031242;28;20214;-59
2023/12/15 00:31:20;;;;;;;14.93;8.82;;;5.20;99.90;;;;;;5031087;28;20306;-57
2023/12/15 00:33:49;;;;;;;11.93;8.65;;;5.20;99.90;;;;;;5030024;28;20281;-57
2023/12/15 00:36:17;;;;;;;12.77;7.57;;;5.20;99.90;;;;;;5030298;28;20265;-57
2023/12/15 00:38:45;;;;;;;13.13;7.63;;;5.20;99.90;;;;;;5031165;28;20676;-55
2023/12/15 00:41:13;;;;;;;14.25;9.43;;;5.20;99.90;;;;;;5030829;28;20305;-56
2023/12/15 00:43:41;;;;;;;12.00;8.35;;;5.20;99.90;;;;;;5028689;28;20219;-57
2023/12/15 00:46:09;;;;;;;12.65;8.30;;;5.20;99.90;;;;;;5028060;28;20819;-56
2023/12/15 00:48:36;;;;;;;14.30;9.13;;;5.20;99.90;;;;;;5031054;28;20245;-57
2023/12/15 00:51:07;;;;;;;14.75;8.82;;;5.20;99.90;;;;;;5030984;28;20206;-57
2023/12/15 00:53:34;;;;;;;15.68;8.00;;;5.20;99.90;;;;;;5033208;28;20289;-56
2023/12/15 00:56:02;;;;;;;19.58;9.90;;;5.20;99.90;;;;;;5034523;28;20298;-59
2023/12/15 00:58:30;;;;;;;16.25;10.32;;;5.20;99.90;;;;;;5034586;28;20293;-58
2023/12/15 01:00:58;;;;;;;17.20;10.40;;;5.20;99.90;;;;;;5034045;28;20241;-58
2023/12/15 01:03:26;;;;;;;14.57;9.43;;;5.20;99.90;;;;;;5034351;28;20317;-57
2023/12/15 01:05:54;;;;;;;18.00;10.70;;;5.20;99.90;;;;;;5034330;28;20665;-57
2023/12/15 01:08:24;;;;;;;15.23;9.60;;;5.20;99.90;;;;;;5034363;28;20211;-57
2023/12/15 01:10:52;;;;;;;17.75;10.02;;;5.20;99.90;;;;;;5034306;28;20289;-56
2023/12/15 01:13:20;;;;;;;17.52;10.25;;;5.20;99.90;;;;;;5033858;28;20206;-58
2023/12/15 01:15:48;;;;;;;16.40;9.52;;;5.20;99.90;;;;;;5034535;28;20302;-57
2023/12/15 01:18:15;;;;;;;21.42;11.10;;;5.20;99.90;;;;;;5034409;28;20213;-56
2023/12/15 01:20:43;;;;;;;17.85;10.02;;;5.30;99.90;;;;;;5033523;28;20261;-58
2023/12/15 01:23:11;;;;;;;17.77;10.05;;;5.30;99.90;;;;;;5033502;28;20226;-55
2023/12/15 01:25:41;;;;;;;16.10;9.48;;;5.30;99.90;;;;;;5033946;28;20203;-58
2023/12/15 01:28:08;;;;;;;20.60;10.48;;;5.30;99.90;;;;;;5034024;28;20214;-57
2023/12/15 01:30:36;;;;;;;16.00;9.27;;;5.40;99.90;;;;;;5033678;28;20202;-56
2023/12/15 01:33:04;;;;;;;18.05;10.07;;;5.40;99.90;;;;;;5034084;28;20218;-57
2023/12/15 01:35:32;;;;;;;18.70;10.05;;;5.40;99.90;;;;;;5034097;28;20217;-59
2023/12/15 01:38:00;;;;;;;18.95;9.95;;;5.40;99.90;;;;;;5033805;28;20207;-57
2023/12/15 01:40:28;;;;;;;17.80;9.70;;;5.40;99.90;;;;;;5033819;28;20202;-56
2023/12/15 01:43:00;;;;;;;16.63;9.48;;;5.40;99.90;;;;;;5033783;28;20331;-57
2023/12/15 01:45:28;;;;;;;21.60;10.57;;;5.40;99.90;;;;;;5033904;28;20234;-57
2023/12/15 01:47:56;;;;;;;15.70;9.40;;;5.40;99.90;;;;;;5033476;28;20660;-56
2023/12/15 01:50:24;;;;;;;25.63;10.55;;;5.40;99.90;;;;;;5033587;28;20684;-58
2023/12/15 01:52:52;;;;;;;23.48;10.75;;;5.40;99.90;;;;;;5060750;22;20222;-61
2023/12/15 01:55:20;;;;;;;17.83;10.07;;;5.40;99.90;;;;;;5053793;28;20251;-60
2023/12/15 01:57:48;;;;;;;17.85;10.38;;;5.50;99.90;;;;;;5051017;28;20202;-60
2023/12/15 02:00:17;;;;;;;22.60;8.32;;;5.40;99.90;;;;;;5053593;28;20293;-58
2023/12/15 02:02:45;;;;;;;19.23;8.70;;;5.50;99.90;;;;;;5053257;28;20225;-60
2023/12/15 02:05:13;;;;;;;16.40;8.93;;;5.50;99.90;;;;;;5052923;28;20309;-61
2023/12/15 02:07:41;;;;;;;15.00;9.00;;;5.50;99.90;;;;;;5048433;28;20241;-60
2023/12/15 02:10:09;;;;;;;18.00;9.23;;;5.50;99.90;;;;;;5053470;28;20206;-61
2023/12/15 02:12:37;;;;;;;18.15;9.95;;;5.50;99.90;;;;;;5052543;28;20673;-61
2023/12/15 02:15:08;;;;;;;18.23;10.18;;;5.50;99.90;;;;;;5053221;28;20210;-61
2023/12/15 02:17:38;;;;;;;17.38;9.82;;;5.50;99.90;;;;;;5052303;28;20214;-60
2023/12/15 02:20:07;;;;;;;21.05;9.52;;;5.50;99.90;;;;;;5053065;28;20690;-60
2023/12/15 02:22:37;;;;;;;16.23;9.52;;;5.50;99.90;;;;;;5053420;28;20225;-58
2023/12/15 02:25:05;;;;;;;13.25;9.40;;;5.50;99.90;;;;;;5053012;28;20316;-59
2023/12/15 02:27:33;;;;;;;16.17;9.25;;;5.50;99.90;;;;;;5050482;28;20255;-59
2023/12/15 02:30:02;;;;;;;15.35;9.88;;;5.50;99.90;;;;;;5047660;28;20205;-58
2023/12/15 02:32:30;;;;;;;16.58;9.18;;;5.50;99.90;;;;;;5053058;28;20265;-60
2023/12/15 02:34:58;;;;;;;17.58;9.07;;;5.50;99.90;;;;;;5052392;28;20251;-61
2023/12/15 02:37:26;;;;;;;17.77;9.85;;;5.50;99.90;;;;;;5052272;28;20243;-61
2023/12/15 02:39:55;;;;;;;17.05;9.40;;;5.50;99.90;;;;;;5052467;28;20671;-59
2023/12/15 02:42:23;;;;;;;16.52;10.38;;;5.50;99.90;;;;;;5052143;28;20229;-60
2023/12/15 02:44:51;;;;;;;15.93;10.20;;;5.40;99.90;;;;;;5052399;28;20280;-60
2023/12/15 02:47:18;;;;;;;19.85;9.57;;;5.40;99.90;;;;;;5045190;28;20261;-59
2023/12/15 02:49:46;;;;;;;16.60;10.18;;;5.50;99.90;;;;;;5052580;28;20225;-59
2023/12/15 02:52:14;;;;;;;16.17;9.35;;;5.40;99.90;;;;;;5052284;28;20260;-61
2023/12/15 02:54:42;;;;;;;14.73;9.55;;;5.40;99.90;;;;;;5051880;28;20198;-59
2023/12/15 02:57:11;;;;;;;17.48;9.75;;;5.50;99.90;;;;;;5052028;28;20709;-60
2023/12/15 02:59:39;;;;;;;19.40;10.02;;;5.50;99.90;;;;;;5052002;28;20229;-60
2023/12/15 03:02:07;;;;;;;21.75;9.38;;;5.50;99.90;;;;;;5051915;28;20231;-59
2023/12/15 03:04:35;;;;;;;13.13;8.32;;;5.50;99.90;;;;;;5052066;28;20213;-60
2023/12/15 03:07:03;;;;;;;15.48;8.95;;;5.50;99.90;;;;;;5051787;28;20622;-59
2023/12/15 03:09:31;;;;;;;15.60;8.95;;;5.50;99.90;;;;;;5051980;28;20872;-57
2023/12/15 03:11:59;;;;;;;16.63;10.68;;;5.50;99.90;;;;;;5051622;28;20657;-60
2023/12/15 03:14:28;;;;;;;16.88;10.80;;;5.50;99.90;;;;;;5051461;28;20208;-57
2023/12/15 03:16:56;;;;;;;18.27;11.20;;;5.40;99.90;;;;;;5051334;28;20226;-60
2023/12/15 03:19:24;;;;;;;17.33;10.13;;;5.40;99.90;;;;;;5051616;28;20210;-60
2023/12/15 03:21:51;;;;;;;20.50;10.45;;;5.40;99.90;;;;;;5051795;28;20703;-60
2023/12/15 03:24:19;;;;;;;17.92;10.73;;;5.40;99.90;;;;;;5051621;28;20283;-59
2023/12/15 03:26:47;;;;;;;23.33;11.10;;;5.50;99.90;;;;;;5051868;28;20238;-60
2023/12/15 03:29:15;;;;;;;20.73;10.65;;;5.40;99.90;;;;;;5051994;28;20679;-60
2023/12/15 03:31:45;;;;;;;17.58;11.00;;;5.50;99.90;;;;;;5043784;28;20757;-57
2023/12/15 03:34:12;;;;;;;20.67;10.20;;;5.40;99.90;;;;;;5050735;28;20201;-58
2023/12/15 03:36:40;;;;;;;19.80;8.48;;;5.40;99.90;;;;;;5047177;28;20283;-61
2023/12/15 03:39:09;;;;;;;16.35;9.13;;;5.40;99.90;;;;;;5051296;28;20205;-58
2023/12/15 03:41:37;;;;;;;18.27;10.02;;;5.40;99.90;;;;;;5051141;28;20233;-61
2023/12/15 03:44:05;;;;;;;18.00;10.80;;;5.40;99.90;;;;;;5050911;28;20222;-58
2023/12/15 03:46:33;;;;;;;16.10;10.60;;;5.30;99.90;;;;;;5051070;28;20255;-60
2023/12/15 03:49:02;;;;;;;18.70;10.98;;;5.30;99.90;;;;;;5051306;28;20205;-61
2023/12/15 03:51:30;;;;;;;19.52;10.18;;;5.30;99.90;;;;;;5050898;28;20222;-59
2023/12/15 03:53:58;;;;;;;18.90;10.85;;;5.30;99.90;;;;;;5050994;28;20247;-59
2023/12/15 03:56:26;;;;;;;20.13;11.75;;;5.30;99.90;;;;;;5050897;28;20201;-61
2023/12/15 03:58:54;;;;;;;23.02;12.20;;;5.30;99.90;;;;;;5051012;28;20206;-60
2023/12/15 04:01:22;;;;;;;19.42;11.57;;;5.30;99.90;;;;;;5050937;28;20737;-58
2023/12/15 04:03:50;;;;;;;18.63;10.68;;;5.30;99.90;;;;;;5051458;28;20198;-60
2023/12/15 04:06:19;;;;;;;19.58;12.35;;;5.30;99.90;;;;;;5051097;28;20236;-59
2023/12/15 04:08:47;;;;;;;20.80;11.57;;;5.30;99.90;;;;;;5051448;28;20226;-61
2023/12/15 04:11:16;;;;;;;20.45;11.68;;;5.30;99.90;;;;;;5051003;28;20216;-60
2023/12/15 04:13:45;;;;;;;19.05;11.57;;;5.30;99.90;;;;;;5051011;28;20297;-60
2023/12/15 04:16:12;;;;;;;19.90;11.30;;;5.30;99.90;;;;;;5050995;28;20206;-59
2023/12/15 04:18:40;;;;;;;20.50;12.25;;;5.30;99.90;;;;;;5049027;28;20654;-59
2023/12/15 04:21:08;;;;;;;21.98;12.50;;;5.30;99.90;;;;;;5051031;28;20206;-60
2023/12/15 04:23:37;;;;;;;20.15;12.32;;;5.30;99.90;;;;;;5051146;28;20206;-57
2023/12/15 04:26:05;;;;;;;23.00;13.00;;;5.30;99.90;;;;;;5050857;28;20254;-60
2023/12/15 04:28:33;;;;;;;20.90;13.25;;;5.30;99.90;;;;;;5054225;28;20206;-59
2023/12/15 04:31:01;;;;;;;26.52;12.93;;;5.30;99.90;;;;;;5055108;28;20259;-58
2023/12/15 04:33:29;;;;;;;19.77;11.55;;;5.30;99.90;;;;;;5052680;28;20229;-60
2023/12/15 04:35:57;;;;;;;17.98;10.05;;;5.30;99.90;;;;;;5054924;28;20198;-60
2023/12/15 04:38:25;;;;;;;17.35;10.73;;;5.40;99.90;;;;;;5054175;28;20749;-60
2023/12/15 04:40:54;;;;;;;18.65;11.15;;;5.30;99.90;;;;;;5054811;28;20565;-58
2023/12/15 04:43:22;;;;;;;19.00;10.55;;;5.30;99.90;;;;;;5054256;28;20257;-58
2023/12/15 04:45:50;;;;;;;21.80;12.43;;;5.30;99.90;;;;;;5054780;28;20253;-58
2023/12/15 04:48:18;;;;;;;24.23;13.82;;;5.30;99.90;;;;;;5054876;28;20214;-60
2023/12/15 04:50:46;;;;;;;24.20;13.88;;;5.30;99.90;;;;;;5047071;28;20285;-59
2023/12/15 04:53:14;;;;;;;21.00;13.43;;;5.30;99.90;;;;;;5054397;28;20702;-58
2023/12/15 04:55:42;;;;;;;23.75;13.65;;;5.30;99.90;;;;;;5054267;28;20202;-58
2023/12/15 04:58:11;;;;;;;23.60;13.85;;;5.30;99.90;;;;;;5054411;28;20677;-59
2023/12/15 05:00:39;;;;;;;22.88;13.32;;;5.30;99.90;;;;;;5054546;28;20237;-58
2023/12/15 05:03:07;;;;;;;19.63;12.40;;;5.30;99.90;;;;;;5054530;28;20226;-60
2023/12/15 05:05:35;;;;;;;22.45;13.50;;;5.30;99.90;;;;;;5054116;28;20229;-59
2023/12/15 05:08:04;;;;;;;22.55;11.90;;;5.40;99.90;;;;;;5053851;28;20589;-57
2023/12/15 05:10:32;;;;;;;24.30;11.93;;;5.40;99.90;;;;;;5054393;28;20725;-60
2023/12/15 05:13:00;;;;;;;17.98;11.88;;;5.40;99.90;;;;;;5054435;28;20279;-58
2023/12/15 05:15:29;;;;;;;19.08;11.73;;;5.40;99.90;;;;;;5053936;28;20613;-60
2023/12/15 05:17:57;;;;;;;22.65;12.00;;;5.40;99.90;;;;;;5053833;28;20280;-61
2023/12/15 05:20:25;;;;;;;18.48;11.57;;;5.40;99.90;;;;;;5053312;28;20296;-61
2023/12/15 05:22:53;;;;;;;21.80;11.07;;;5.40;99.90;;;;;;5053964;28;20226;-61
2023/12/15 05:25:21;;;;;;;21.38;11.55;;;5.40;99.90;;;;;;5053795;28;20226;-60
2023/12/15 05:27:49;;;;;;;18.73;11.43;;;5.30;99.90;;;;;;5044630;28;20229;-58
2023/12/15 05:30:17;;;;;;;23.95;11.93;;;5.30;99.90;;;;;;5053157;28;20679;-57
2023/12/15 05:32:46;;;;;;;21.33;10.95;;;5.30;99.90;;;;;;5053824;28;20222;-59
2023/12/15 05:35:14;;;;;;;20.13;11.60;;;5.30;99.90;;;;;;5053738;28;20229;-61
2023/12/15 05:37:42;;;;;;;23.00;12.55;;;5.30;99.90;;;;;;5051158;28;20216;-59
2023/12/15 05:40:12;;;;;;;20.52;12.32;;;5.30;99.90;;;;;;5051928;28;20691;-58
2023/12/15 05:42:40;;;;;;;18.33;11.82;;;5.30;99.90;;;;;;5053646;28;20226;-59
2023/12/15 05:45:09;;;;;;;19.85;10.50;;;5.30;99.90;;;;;;5053744;28;20256;-57
2023/12/15 05:47:37;;;;;;;22.17;12.85;;;5.30;99.90;;;;;;5053318;28;20283;-59
2023/12/15 05:50:08;;;;;;;27.13;12.30;;;5.30;99.90;;;;;;5053185;28;20206;-59
2023/12/15 05:52:36;;;;;;;24.85;11.50;;;5.30;99.90;;;;;;5044200;28;20308;-60
2023/12/15 05:55:04;;;;;;;20.25;12.82;;;5.30;99.90;;;;;;5050951;28;20237;-58
2023/12/15 05:57:32;;;;;;;20.75;12.88;;;5.20;99.90;;;;;;5053000;28;20288;-60
2023/12/15 06:00:00;;;;;;;22.15;13.30;;;5.30;99.90;;;;;;5052407;28;20253;-60
2023/12/15 06:02:28;;;;;;;24.27;12.88;;;5.20;99.90;;;;;;5053242;28;20229;-60
2023/12/15 06:04:56;;;;;;;20.17;12.82;;;5.30;99.90;;;;;;5053044;28;20202;-60
2023/12/15 06:07:25;;;;;;;19.70;12.32;;;5.30;99.90;;;;;;5046705;28;20232;-60
2023/12/15 06:09:53;;;;;;;22.48;12.13;;;5.30;99.90;;;;;;5045532;28;20648;-57
2023/12/15 06:12:20;;;;;;;25.50;13.48;;;5.30;99.90;;;;;;5051550;28;20226;-58
2023/12/15 06:14:48;;;;;;;19.92;12.02;;;5.20;99.90;;;;;;5052630;28;20284;-60
2023/12/15 06:17:16;;;;;;;21.45;11.98;;;5.30;99.90;;;;;;5052591;28;20723;-57
2023/12/15 06:19:44;;;;;;;18.73;12.02;;;5.20;99.90;;;;;;5046183;28;20213;-60
2023/12/15 06:22:12;;;;;;;20.40;11.48;;;5.30;99.90;;;;;;5052784;28;20315;-58
2023/12/15 06:24:42;;;;;;;21.20;12.32;;;5.20;99.90;;;;;;5053134;28;20234;-57
2023/12/15 06:27:10;;;;;;;18.50;10.50;;;5.20;99.90;;;;;;5051748;28;20218;-61
2023/12/15 06:29:39;;;;;;;20.67;11.18;;;5.20;99.90;;;;;;5052455;28;20690;-60
2023/12/15 06:32:08;;;;;;;20.30;12.13;;;5.20;99.90;;;;;;5050859;28;20231;-56
2023/12/15 06:34:36;;;;;;;21.13;11.45;;;5.20;99.90;;;;;;5050027;28;20248;-59
2023/12/15 06:37:04;;;;;;;20.42;11.63;;;5.20;99.90;;;;;;5046642;28;20225;-58
2023/12/15 06:39:32;;;;;;;21.10;12.57;;;5.20;99.90;;;;;;5051603;28;20209;-58
2023/12/15 06:42:02;;;;;;;20.58;12.00;;;5.20;99.90;;;;;;5042397;28;20253;-59
2023/12/15 06:44:31;;;;;;;16.40;11.05;;;5.20;99.90;;;;;;5047470;28;20221;-59
2023/12/15 06:46:59;;;;;;;19.15;9.98;;;5.20;99.90;;;;;;5046583;28;20221;-58
2023/12/15 06:49:30;;;;;;;15.60;9.13;;;5.90;99.90;;;;;;5050247;28;20292;-62
2023/12/15 06:51:58;;;;;;;11.10;7.63;;;7.30;99.90;;;;;;5047164;28;20229;-62
2023/12/15 06:54:27;;;;;;;10.75;7.63;;;8.60;99.90;;;;;;5051030;28;20206;-62
2023/12/15 06:56:54;;;;;;;12.27;7.95;;;9.80;99.90;;;;;;5045182;28;20625;-62
2023/12/15 06:59:24;;;;;;;8.93;7.82;;;10.50;99.90;;;;;;5051649;28;20233;-63
2023/12/15 07:01:51;;;;;;;10.73;7.82;;;10.90;99.90;;;;;;5051047;28;20222;-64
2023/12/15 07:04:19;;;;;;;11.27;8.30;;;10.50;99.90;;;;;;5050400;28;20642;-63
2023/12/15 07:06:47;;;;;;;13.80;8.80;;;9.70;99.90;;;;;;5048425;28;20235;-64
2023/12/15 07:09:15;;;;;;;12.00;8.55;;;8.80;99.90;;;;;;5050101;28;20241;-64
2023/12/15 07:11:46;;;;;;;13.15;8.82;;;8.10;99.90;;;;;;5050317;28;21784;-64
2023/12/15 07:14:14;;;;;;;14.02;10.10;;;7.50;99.90;;;;;;5050961;28;20209;-64
2023/12/15 07:16:43;;;;;;;13.02;9.50;;;7.10;99.90;;;;;;5050794;28;20683;-63
2023/12/15 07:19:11;;;;;;;14.75;10.25;;;6.80;99.90;;;;;;5051138;28;20289;-63
2023/12/15 07:21:39;;;;;;;16.27;9.60;;;6.50;99.90;;;;;;5050515;28;20230;-63
2023/12/15 07:24:08;;;;;;;12.57;8.70;;;6.30;99.90;;;;;;5050777;28;20293;-63
2023/12/15 07:26:36;;;;;;;14.18;8.23;;;6.10;99.90;;;;;;5050816;28;20316;-63
2023/12/15 07:29:04;;;;;;;14.43;9.65;;;5.80;99.90;;;;;;5050840;28;20205;-63
2023/12/15 07:31:32;;;;;;;13.48;9.00;;;5.70;99.90;;;;;;5050842;28;20230;-63
2023/12/15 07:34:01;;;;;;;16.75;10.18;;;5.60;99.90;;;;;;5050579;28;20198;-63
2023/12/15 07:36:29;;;;;;;16.55;9.77;;;5.50;99.90;;;;;;5044367;28;20213;-63
2023/12/15 07:38:57;;;;;;;13.93;9.32;;;5.40;99.90;;;;;;5044724;28;20296;-62
2023/12/15 07:41:24;;;;;;;17.83;10.68;;;5.40;99.90;;;;;;5048371;28;20210;-63
2023/12/15 07:43:52;;;;;;;15.90;10.18;;;5.30;99.90;;;;;;5049331;28;20210;-64
2023/12/15 07:46:20;;;;;;;16.85;10.60;;;5.30;99.90;;;;;;5049926;28;20305;-64
2023/12/15 07:48:48;;;;;;;19.88;10.48;;;5.20;99.90;;;;;;5050181;28;20642;-64
2023/12/15 07:51:18;;;;;;;17.30;10.07;;;5.20;99.90;;;;;;5049286;28;20233;-62
2023/12/15 07:53:47;;;;;;;18.20;11.02;;;5.10;99.90;;;;;;5049263;28;20206;-63
2023/12/15 07:56:22;;;;;;;19.02;11.18;;;5.10;99.90;;;;;;5049026;28;20237;-63
2023/12/15 07:58:50;;;;;;;16.85;10.25;;;5.10;99.90;;;;;;5049636;28;20577;-64
2023/12/15 08:01:18;;;;;;;17.77;10.82;;;5.10;99.90;;;;;;5047060;28;20283;-65
2023/12/15 08:03:46;;;;;;;18.33;11.30;;;5.10;99.90;;;;;;5048781;28;20202;-63
2023/12/15 08:06:14;;;;;;;19.67;11.90;;;5.10;99.90;;;;;;5048976;28;20206;-64
2023/12/15 08:08:45;;;;;;;23.75;11.95;;;5.10;99.90;;;;;;5049648;28;20612;-65
2023/12/15 08:11:13;;;;;;;19.60;11.35;;;5.10;99.90;;;;;;5047483;28;20234;-64
2023/12/15 08:13:41;;;;;;;17.95;10.82;;;5.10;99.90;;;;;;5047170;28;20218;-63
2023/12/15 08:16:10;;;;;;;18.55;9.55;;;5.20;99.90;;;;;;5050408;28;20201;-64
2023/12/15 08:18:42;;;;;;;16.13;10.20;;;5.20;99.90;;;;;;5049928;28;20209;-64
2023/12/15 08:21:11;;;;;;;18.85;10.70;;;5.20;99.90;;;;;;5050385;28;20623;-64
2023/12/15 08:23:39;;;;;;;15.30;10.23;;;5.30;99.90;;;;;;5049028;28;20289;-63
2023/12/15 08:26:08;;;;;;;15.43;10.18;;;5.30;99.90;;;;;;5050083;28;20206;-64
2023/12/15 08:28:36;;;;;;;16.95;9.77;;;5.30;99.90;;;;;;5049865;28;20229;-65
2023/12/15 08:31:05;;;;;;;14.63;10.02;;;5.30;99.90;;;;;;5050473;28;20210;-64
2023/12/15 08:33:33;;;;;;;18.73;10.32;;;5.40;99.90;;;;;;5049107;28;20309;-64
2023/12/15 08:36:01;;;;;;;15.43;9.73;;;5.50;99.90;;;;;;5045988;28;20259;-64
2023/12/15 08:38:28;;;;;;;16.33;10.00;;;5.50;99.90;;;;;;5050400;28;20628;-64
2023/12/15 08:40:57;;;;;;;14.88;9.27;;;5.50;99.90;;;;;;5050627;28;20205;-64
2023/12/15 08:43:26;;;;;;;15.88;9.90;;;5.60;99.90;;;;;;5050349;28;20229;-64
2023/12/15 08:45:54;;;;;;;15.52;9.60;;;5.60;99.90;;;;;;5050712;28;20620;-64
2023/12/15 08:48:22;;;;;;;18.42;11.02;;;5.70;99.90;;;;;;5050344;28;20264;-64
2023/12/15 08:50:50;;;;;;;16.20;10.18;;;5.70;99.90;;;;;;5050064;28;20660;-65
2023/12/15 08:53:18;;;;;;;13.30;9.65;;;5.70;99.90;;;;;;5050028;28;20229;-64
2023/12/15 08:55:46;;;;;;;13.48;10.15;;;5.70;99.90;;;;;;5050584;28;20217;-64
2023/12/15 08:58:14;;;;;;;18.38;10.27;;;5.70;99.90;;;;;;5050350;28;20292;-64
2023/12/15 09:00:43;;;;;;;14.35;10.23;;;5.70;99.90;;;;;;5050150;28;20229;-64
2023/12/15 09:03:11;;;;;;;15.60;10.00;;;5.70;99.90;;;;;;5050377;28;20230;-63
2023/12/15 09:05:39;;;;;;;18.90;10.70;;;5.80;99.90;;;;;;5050042;28;20907;-64
2023/12/15 09:08:27;;;;;;;14.00;10.02;;;5.90;99.90;;;;;;5050263;28;20221;-65
2023/12/15 09:10:55;;;;;;;20.17;10.10;;;6.00;99.90;;;;;;5050644;28;20209;-65
2023/12/15 09:13:23;;;;;;;14.75;10.27;;;6.10;99.90;;;;;;5050393;28;20699;-64
2023/12/15 09:15:52;;;;;;;19.42;10.10;;;6.20;99.90;;;;;;5054081;28;20244;-64
2023/12/15 09:18:20;;;;;;;13.93;9.43;;;6.20;99.90;;;;;;5053754;28;20202;-64
2023/12/15 09:20:49;;;;;;;17.15;11.40;;;6.30;99.90;;;;;;5053773;28;20202;-64
2023/12/15 09:23:17;;;;;;;19.02;10.85;;;6.30;99.90;;;;;;5053303;28;20662;-64
2023/12/15 09:25:49;;;;;;;15.23;11.40;;;6.30;99.90;;;;;;5053261;28;20214;-64
2023/12/15 09:28:17;;;;;;;14.45;10.50;;;6.30;99.90;;;;;;5051911;28;20222;-64
2023/12/15 09:30:45;;;;;;;16.80;10.35;;;6.30;99.90;;;;;;5045490;28;20225;-64
2023/12/15 09:33:14;;;;;;;14.45;10.50;;;6.30;99.90;;;;;;5052958;28;20317;-64
2023/12/15 09:35:42;;;;;;;17.38;10.57;;;6.40;99.90;;;;;;5052101;28;20205;-65
2023/12/15 09:38:10;;;;;;;15.60;10.63;;;6.40;99.90;;;;;;5051396;28;20194;-64
2023/12/15 09:40:39;;;;;;;17.70;11.43;;;6.40;99.90;;;;;;5052554;28;20214;-64
2023/12/15 09:43:07;;;;;;;15.70;10.75;;;6.40;99.90;;;;;;5052482;28;20336;-64
2023/12/15 09:45:35;;;;;;;20.30;11.05;;;6.50;99.90;;;;;;5049703;28;20298;-63
2023/12/15 09:48:03;;;;;;;18.38;12.07;;;6.50;99.90;;;;;;5045835;28;20309;-65
2023/12/15 09:50:34;;;;;;;17.02;11.73;;;6.60;99.90;;;;;;5052680;28;20618;-64
2023/12/15 09:53:03;;;;;;;18.35;11.70;;;6.60;99.90;;;;;;5048246;28;20229;-64
2023/12/15 09:55:31;;;;;;;17.83;11.88;;;6.70;99.90;;;;;;5047305;28;20675;-63
2023/12/15 09:58:00;;;;;;;18.30;12.07;;;6.70;99.90;;;;;;5051115;28;20210;-64
2023/12/15 10:00:29;;;;;;;15.93;11.55;;;6.80;99.90;;;;;;5050154;28;20209;-65
2023/12/15 10:02:58;;;;;;;18.40;11.85;;;6.80;99.90;;;;;;5048815;28;20321;-63
2023/12/15 10:05:26;;;;;;;16.27;11.60;;;6.90;99.90;;;;;;5048855;28;20213;-63
2023/12/15 10:07:55;;;;;;;19.50;12.10;;;7.00;99.90;;;;;;5051182;28;20230;-64
2023/12/15 10:10:26;;;;;;;18.02;11.82;;;7.00;99.90;;;;;;5050999;28;20214;-64
2023/12/15 10:12:55;;;;;;;20.45;11.35;;;7.00;99.90;;;;;;5052081;28;20226;-65
2023/12/15 10:15:24;;;;;;;19.35;12.07;;;7.00;99.90;;;;;;5049623;28;20218;-64
2023/12/15 10:17:56;;;;;;;18.48;12.18;;;7.10;99.90;;;;;;5051301;28;20206;-63
2023/12/15 10:20:24;;;;;;;17.15;12.38;;;7.20;99.90;;;;;;5052405;28;20690;-64
2023/12/15 10:23:02;;;;;;;17.42;11.45;;;7.10;99.90;;;;;;5051780;28;20245;-63
2023/12/15 10:25:30;;;;;;;20.33;13.02;;;7.10;99.90;;;;;;5050509;28;20201;-63
2023/12/15 10:27:58;;;;;;;19.83;13.30;;;7.10;99.90;;;;;;5051604;28;20304;-64
2023/12/15 10:30:29;;;;;;;20.95;13.43;;;7.00;99.90;;;;;;5051599;28;20213;-64
2023/12/15 10:32:58;;;;;;;18.63;12.55;;;7.00;99.90;;;;;;5051062;28;20236;-64
2023/12/15 10:35:26;;;;;;;23.05;13.70;;;7.00;99.90;;;;;;5049955;28;20214;-64
2023/12/15 10:37:54;;;;;;;27.52;14.70;;;7.00;99.90;;;;;;5051124;28;20256;-64
2023/12/15 10:40:23;;;;;;;24.58;15.48;;;7.00;99.90;;;;;;5051033;28;20212;-64
2023/12/15 10:42:51;;;;;;;19.63;13.43;;;7.10;99.90;;;;;;5050502;28;20670;-65
2023/12/15 10:45:19;;;;;;;22.88;13.60;;;7.20;99.90;;;;;;5048118;28;20242;-64
2023/12/15 10:47:48;;;;;;;23.73;14.50;;;7.30;99.90;;;;;;5044911;28;20210;-64
2023/12/15 10:50:16;;;;;;;24.75;13.82;;;7.30;99.90;;;;;;5050509;28;20202;-65
2023/12/15 10:52:45;;;;;;;25.00;14.02;;;7.30;99.90;;;;;;5045058;28;20299;-64
2023/12/15 10:55:13;;;;;;;21.20;13.55;;;7.20;99.90;;;;;;5050635;28;20233;-64
2023/12/15 10:57:44;;;;;;;24.05;14.30;;;7.30;99.90;;;;;;5050394;28;20218;-64
2023/12/15 11:00:13;;;;;;;21.15;14.38;;;7.30;99.90;;;;;;5050898;28;20206;-64
2023/12/15 11:02:41;;;;;;;19.33;13.90;;;7.40;99.90;;;;;;5049776;28;20272;-65
2023/12/15 11:05:10;;;;;;;21.52;14.20;;;7.40;99.90;;;;;;5050598;28;20667;-64
2023/12/15 11:07:39;;;;;;;23.38;15.23;;;7.40;99.90;;;;;;5050840;28;20218;-63
2023/12/15 11:10:09;;;;;;;22.35;14.38;;;7.40;99.90;;;;;;5042286;28;20314;-64
2023/12/15 11:12:37;;;;;;;23.85;15.27;;;7.40;99.90;;;;;;5050512;28;20232;-64
2023/12/15 11:15:09;;;;;;;21.67;14.48;;;7.30;99.90;;;;;;5051895;28;20202;-65
2023/12/15 11:17:38;;;;;;;27.33;15.48;;;7.30;99.90;;;;;;5051109;28;20220;-64
2023/12/15 11:20:34;;;;;;;19.85;14.57;;;7.40;99.90;;;;;;5049695;28;20206;-64
2023/12/15 11:23:06;;;;;;;29.10;15.57;;;7.40;99.90;;;;;;5050910;28;20230;-64
2023/12/15 11:25:37;;;;;;;27.55;16.05;;;7.50;99.90;;;;;;5051218;28;20213;-63
2023/12/15 11:28:07;;;;;;;28.17;15.60;;;7.50;99.90;;;;;;5050269;28;20615;-65
2023/12/15 11:30:39;;;;;;;24.83;15.02;;;7.60;99.90;;;;;;5051506;28;20217;-65
2023/12/15 11:33:41;;;;;;;27.42;15.75;;;7.60;99.90;;;;;;5047849;28;20226;-64
2023/12/15 11:36:12;;;;;;;23.83;14.13;;;7.60;99.90;;;;;;5041032;28;20205;-65
2023/12/15 11:38:40;;;;;;;23.00;15.27;;;7.60;99.90;;;;;;5050170;28;20671;-65
2023/12/15 11:41:08;;;;;;;23.50;16.45;;;7.60;99.90;;;;;;5050170;28;20198;-64
2023/12/15 11:43:37;;;;;;;24.55;15.25;;;7.60;99.90;;;;;;5049834;28;20202;-65
2023/12/15 11:46:06;;;;;;;26.17;14.93;;;7.60;99.90;;;;;;5050494;28;20238;-65
2023/12/15 11:48:35;;;;;;;25.95;14.80;;;7.60;99.90;;;;;;5050624;28;20229;-65
2023/12/15 11:51:04;;;;;;;24.75;15.38;;;7.60;99.90;;;;;;5048509;28;20206;-64
2023/12/15 11:53:32;;;;;;;23.00;15.65;;;7.70;99.90;;;;;;5049249;28;20230;-64
2023/12/15 11:56:04;;;;;;;28.50;15.30;;;7.70;99.90;;;;;;5051027;28;20574;-64
2023/12/15 11:58:33;;;;;;;31.02;15.43;;;7.70;99.90;;;;;;5050728;28;20202;-65
2023/12/15 12:01:03;;;;;;;25.85;15.52;;;7.80;99.90;;;;;;5049818;28;20210;-65
2023/12/15 12:03:33;;;;;;;24.65;15.35;;;7.90;99.90;;;;;;5050771;28;20317;-65
2023/12/15 12:06:05;;;;;;;25.60;15.25;;;7.90;99.90;;;;;;5050307;28;20214;-65
2023/12/15 12:08:33;;;;;;;23.77;14.73;;;8.00;99.90;;;;;;5048198;28;20210;-65
2023/12/15 12:11:02;;;;;;;17.27;13.48;;;8.10;99.90;;;;;;5048504;28;20356;-65
2023/12/15 12:13:32;;;;;;;20.60;13.25;;;8.10;99.90;;;;;;5050223;28;20268;-65
2023/12/15 12:16:01;;;;;;;21.63;13.68;;;8.10;99.90;;;;;;5049397;28;20214;-63
2023/12/15 12:18:30;;;;;;;20.77;13.20;;;8.20;99.90;;;;;;5047107;28;20209;-63
2023/12/15 12:21:01;;;;;;;23.42;12.57;;;8.10;99.90;;;;;;5047375;28;20287;-63
2023/12/15 12:23:28;;;;;;;20.95;12.95;;;8.10;99.90;;;;;;5048722;28;20308;-63
2023/12/15 12:26:11;;;;;;;19.35;12.68;;;8.10;99.90;;;;;;5049168;28;20236;-62
2023/12/15 12:28:41;;;;;;;18.02;12.32;;;8.10;99.90;;;;;;5049968;28;20671;-62
2023/12/15 12:31:09;;;;;;;19.08;12.57;;;8.10;99.90;;;;;;5049875;28;20210;-63
2023/12/15 12:33:36;;;;;;;20.05;12.55;;;8.10;99.90;;;;;;5048431;28;20306;-63
2023/12/15 12:36:08;;;;;;;18.23;13.32;;;8.10;99.90;;;;;;5049964;28;20220;-64
2023/12/15 12:38:36;;;;;;;23.42;13.73;;;8.10;99.90;;;;;;5049690;28;20276;-63
2023/12/15 12:41:05;;;;;;;21.08;13.27;;;8.10;99.90;;;;;;5050114;28;20202;-63
2023/12/15 12:43:34;;;;;;;19.63;13.07;;;8.10;99.90;;;;;;5049126;28;20308;-62
2023/12/15 12:46:04;;;;;;;7.97;6.45;;;8.20;99.90;;;;;;5048649;28;20210;-61
2023/12/15 12:48:32;;;;;;;17.40;10.35;;;9.40;99.90;;;;;;5051434;28;20202;-63